Time;durP1;ratioP1;P1;durP2;ratioP2;P2;SDS_P1;SDS_P2;PMS_P1;PMS_P2;Temp;Humidity;BMP_temperature;BMP_pressure;BME280_temperature;BME280_humidity;BME280_pressure;Samples;Min_cycle;Max_cycle;Signal;HPM_P1;HPM_P2
2022/06/04 00:00:44;;;;;;;2.70;0.70;;;15.60;62.20;;;;;;2081674;28;20029;-91
2022/06/04 00:02:04;;;;;;;1.75;0.80;;;15.60;62.40;;;;;;2079188;28;20029;-91
2022/06/04 00:03:26;;;;;;;1.73;0.75;;;15.60;62.50;;;;;;2073638;28;20384;-92
2022/06/04 00:04:45;;;;;;;2.58;1.00;;;15.50;63.20;;;;;;2081364;28;20053;-90
2022/06/04 00:06:04;;;;;;;1.20;0.80;;;15.50;63.30;;;;;;2084150;28;20037;-90
2022/06/04 00:07:24;;;;;;;2.60;0.70;;;15.50;62.90;;;;;;2070037;28;20026;-90
2022/06/04 00:08:43;;;;;;;2.22;0.95;;;15.40;63.00;;;;;;2076292;28;20034;-91
2022/06/04 00:15:32;;;;;;;2.40;0.80;;;15.30;63.50;;;;;;2082340;28;20073;-91
2022/06/04 00:16:52;;;;;;;1.98;0.77;;;15.30;63.70;;;;;;2065591;28;20031;-91
2022/06/04 00:18:11;;;;;;;4.88;1.15;;;15.20;63.70;;;;;;2080715;28;20041;-89
2022/06/04 00:19:31;;;;;;;1.95;0.85;;;15.20;64.10;;;;;;2084817;28;20046;-91
2022/06/04 00:20:51;;;;;;;3.17;1.23;;;15.20;64.10;;;;;;2088141;28;20096;-91
2022/06/04 00:22:11;;;;;;;1.60;0.80;;;15.10;64.20;;;;;;2095245;28;20040;-91
2022/06/04 00:23:31;;;;;;;2.50;0.95;;;15.20;64.40;;;;;;2098465;28;20036;-91
2022/06/04 00:24:50;;;;;;;2.40;1.10;;;15.10;64.40;;;;;;2098585;28;20040;-91
2022/06/04 00:26:13;;;;;;;1.60;0.70;;;15.10;64.60;;;;;;2098256;28;20028;-91
2022/06/04 00:27:32;;;;;;;1.60;0.70;;;15.10;64.60;;;;;;2098424;28;20433;-89
2022/06/04 00:28:51;;;;;;;2.35;0.80;;;15.00;64.70;;;;;;2089907;28;20033;-90
2022/06/04 00:30:11;;;;;;;1.35;0.60;;;15.00;64.80;;;;;;2095496;28;20036;-92
2022/06/04 00:31:30;;;;;;;1.20;0.68;;;15.00;64.90;;;;;;2089929;28;20041;-90
2022/06/04 00:32:50;;;;;;;2.25;0.65;;;15.00;64.90;;;;;;2087216;28;20037;-91
2022/06/04 00:34:09;;;;;;;2.55;0.90;;;15.00;65.10;;;;;;2086647;28;20029;-93
2022/06/04 00:35:29;;;;;;;1.70;0.80;;;14.90;65.20;;;;;;2081747;28;20037;-91
2022/06/04 00:36:48;;;;;;;2.92;0.88;;;14.90;65.30;;;;;;2074229;28;20258;-91
2022/06/04 00:38:07;;;;;;;2.10;0.80;;;14.90;65.40;;;;;;2093380;28;20041;-92
2022/06/04 00:39:26;;;;;;;1.40;0.80;;;14.90;65.40;;;;;;2074944;28;20037;-90
2022/06/04 00:40:57;;;;;;;2.33;1.00;;;14.90;65.60;;;;;;2068919;28;20025;-91
2022/06/04 00:42:18;;;;;;;2.97;1.05;;;14.90;65.70;;;;;;2073099;28;20025;-88
2022/06/04 00:44:10;;;;;;;2.05;0.93;;;14.80;65.60;;;;;;2071871;28;20062;-92
2022/06/04 00:45:38;;;;;;;2.20;0.95;;;14.80;66.20;;;;;;2083539;28;20037;-90
2022/06/04 00:47:27;;;;;;;2.10;1.02;;;14.80;66.00;;;;;;2076337;28;20030;-91
2022/06/04 00:48:46;;;;;;;2.55;1.00;;;14.70;66.00;;;;;;2086115;28;20029;-90
2022/06/04 00:50:05;;;;;;;2.05;1.00;;;14.70;66.00;;;;;;2071780;28;20033;-90
2022/06/04 00:51:25;;;;;;;4.75;1.30;;;14.70;66.10;;;;;;2068658;28;20086;-90
2022/06/04 00:52:47;;;;;;;2.28;1.00;;;14.60;66.20;;;;;;2068872;28;20046;-91
2022/06/04 00:54:06;;;;;;;2.00;0.90;;;14.60;66.40;;;;;;2077273;28;20045;-90
2022/06/04 00:55:32;;;;;;;2.97;0.95;;;14.60;66.50;;;;;;2080137;28;20161;-91
2022/06/04 00:57:16;;;;;;;3.13;0.90;;;14.50;66.50;;;;;;2089659;28;20021;-91
2022/06/04 00:59:05;;;;;;;2.88;1.17;;;14.60;66.70;;;;;;2092100;28;20025;-91
2022/06/04 01:00:35;;;;;;;2.90;1.20;;;14.60;66.70;;;;;;2083048;28;20033;-89
2022/06/04 01:02:26;;;;;;;2.08;1.00;;;14.50;66.80;;;;;;2090116;28;20040;-91
2022/06/04 01:03:57;;;;;;;1.23;0.90;;;14.50;67.10;;;;;;2084125;28;20033;-91
2022/06/04 01:05:54;;;;;;;1.25;0.85;;;14.40;66.90;;;;;;2081590;28;20057;-91
2022/06/04 01:07:19;;;;;;;1.80;1.00;;;14.40;66.90;;;;;;2066699;28;20117;-91
2022/06/04 01:09:18;;;;;;;2.53;0.90;;;14.40;66.90;;;;;;2072588;28;20034;-91
2022/06/04 01:10:40;;;;;;;1.42;0.82;;;14.40;67.10;;;;;;2091226;28;20040;-90
2022/06/04 01:12:17;;;;;;;2.60;1.00;;;14.40;67.10;;;;;;2097221;28;20033;-91
2022/06/04 01:13:42;;;;;;;2.33;0.90;;;14.40;67.20;;;;;;2091488;28;20029;-91
2022/06/04 01:15:27;;;;;;;4.20;1.10;;;14.40;67.20;;;;;;2088760;28;20479;-89
2022/06/04 01:16:56;;;;;;;2.22;1.10;;;14.40;67.60;;;;;;2074952;28;20034;-91
2022/06/04 01:18:30;;;;;;;2.38;1.20;;;14.40;67.40;;;;;;2072631;28;20408;-91
2022/06/04 01:20:02;;;;;;;2.05;1.10;;;14.30;67.60;;;;;;2077467;28;20030;-90
2022/06/04 01:21:51;;;;;;;2.17;1.20;;;14.30;67.60;;;;;;2089896;28;20045;-89
2022/06/04 01:23:11;;;;;;;2.58;1.20;;;14.30;67.90;;;;;;2091276;28;20017;-91
2022/06/04 01:25:08;;;;;;;3.55;1.15;;;14.30;67.90;;;;;;2087795;28;20029;-90
2022/06/04 01:26:46;;;;;;;2.67;1.30;;;14.20;68.00;;;;;;2088629;28;20049;-92
2022/06/04 01:28:15;;;;;;;2.38;1.23;;;14.20;67.90;;;;;;2102803;28;20024;-93
2022/06/04 01:29:43;;;;;;;1.92;1.10;;;14.20;68.10;;;;;;2095119;28;20029;-92
2022/06/04 01:31:06;;;;;;;3.03;1.13;;;14.20;68.30;;;;;;2089425;28;20029;-91
2022/06/04 01:32:44;;;;;;;3.03;1.30;;;14.20;68.30;;;;;;2091353;28;20487;-91
2022/06/04 01:34:09;;;;;;;2.13;1.10;;;14.20;68.50;;;;;;2099497;28;20391;-92
2022/06/04 01:35:48;;;;;;;1.83;0.90;;;14.20;68.40;;;;;;2091478;28;20040;-92
2022/06/04 01:37:22;;;;;;;3.15;1.20;;;14.20;68.50;;;;;;2099135;28;20114;-92
2022/06/04 01:38:51;;;;;;;2.17;1.10;;;14.20;68.40;;;;;;2075491;28;20476;-92
2022/06/04 01:41:58;;;;;;;2.75;1.10;;;14.20;68.50;;;;;;2083708;28;20402;-92
2022/06/04 01:43:20;;;;;;;1.95;1.10;;;14.20;68.60;;;;;;2079732;28;20109;-92
2022/06/04 01:44:40;;;;;;;2.25;1.00;;;14.20;68.70;;;;;;2083060;28;20068;-92
2022/06/04 01:46:28;;;;;;;2.83;1.30;;;14.20;68.80;;;;;;2074787;28;20034;-92
2022/06/04 01:47:50;;;;;;;2.38;1.50;;;14.20;68.80;;;;;;2091774;28;20033;-92
2022/06/04 01:49:32;;;;;;;3.00;1.25;;;14.10;68.90;;;;;;2085242;28;20029;-92
2022/06/04 01:50:56;;;;;;;2.22;1.10;;;14.10;69.00;;;;;;2092362;28;20041;-93
2022/06/04 01:52:28;;;;;;;4.30;1.83;;;14.10;69.00;;;;;;2099768;28;20502;-90
2022/06/04 01:53:54;;;;;;;3.20;1.40;;;14.10;69.10;;;;;;2094440;28;20475;-92
2022/06/04 01:55:21;;;;;;;2.17;1.30;;;14.10;69.10;;;;;;2101708;28;20049;-91
2022/06/04 01:56:49;;;;;;;3.17;1.40;;;14.10;69.20;;;;;;2102213;28;20028;-92
2022/06/04 01:58:17;;;;;;;2.22;1.30;;;14.10;69.20;;;;;;2097322;28;20028;-92
2022/06/04 01:59:44;;;;;;;3.03;1.38;;;14.10;69.30;;;;;;2097232;28;20495;-92
2022/06/04 02:01:12;;;;;;;2.00;1.20;;;14.10;69.40;;;;;;2089367;28;20025;-91
2022/06/04 02:02:49;;;;;;;2.22;1.17;;;14.00;69.40;;;;;;2083071;28;20108;-91
2022/06/04 02:04:13;;;;;;;2.30;1.20;;;14.10;69.50;;;;;;2082150;28;20033;-92
2022/06/04 02:05:46;;;;;;;2.53;1.35;;;14.10;69.50;;;;;;2088612;28;20076;-91
2022/06/04 02:07:30;;;;;;;2.85;1.60;;;14.00;69.70;;;;;;2082987;28;20037;-89
2022/06/04 02:09:01;;;;;;;3.92;1.60;;;14.00;69.80;;;;;;2097943;28;20064;-91
2022/06/04 02:10:30;;;;;;;2.45;1.42;;;14.00;69.80;;;;;;2083098;28;20046;-92
2022/06/04 02:11:54;;;;;;;3.72;1.60;;;14.00;69.90;;;;;;2080453;28;20033;-91
2022/06/04 02:13:15;;;;;;;2.42;1.38;;;14.00;70.80;;;;;;2082736;28;20029;-92
2022/06/04 02:14:34;;;;;;;2.95;1.20;;;13.90;70.10;;;;;;2071441;28;20583;-91
2022/06/04 02:16:04;;;;;;;3.13;1.10;;;13.90;70.10;;;;;;2068300;28;20026;-91
2022/06/04 02:17:25;;;;;;;3.25;1.50;;;13.90;70.20;;;;;;2084379;28;20511;-91
2022/06/04 02:18:45;;;;;;;3.30;1.40;;;13.90;70.20;;;;;;2082686;28;20030;-92
2022/06/04 02:20:05;;;;;;;2.88;1.27;;;13.90;70.40;;;;;;2074230;28;20041;-91
2022/06/04 02:21:27;;;;;;;3.13;1.10;;;13.90;70.30;;;;;;2068366;28;20496;-92
2022/06/04 02:22:46;;;;;;;4.22;1.40;;;13.90;70.30;;;;;;2076692;28;20446;-92
2022/06/04 02:24:06;;;;;;;2.17;1.17;;;13.90;70.40;;;;;;2082515;28;20511;-91
2022/06/04 02:25:29;;;;;;;3.88;1.55;;;13.90;70.40;;;;;;2079834;28;20041;-91
2022/06/04 02:26:48;;;;;;;1.65;1.10;;;13.90;70.60;;;;;;2088848;28;20021;-88
2022/06/04 02:28:08;;;;;;;2.70;1.40;;;13.90;70.60;;;;;;2082493;28;20037;-91
2022/06/04 02:29:28;;;;;;;3.28;1.40;;;13.90;70.80;;;;;;2079350;28;20029;-91
2022/06/04 02:31:11;;;;;;;2.58;1.10;;;13.90;70.70;;;;;;2087869;28;20041;-91
2022/06/04 02:32:35;;;;;;;1.73;1.05;;;13.90;70.80;;;;;;2082731;28;20046;-91
2022/06/04 02:34:20;;;;;;;2.95;1.13;;;13.90;70.80;;;;;;2088941;28;20028;-90
2022/06/04 02:36:10;;;;;;;2.72;1.40;;;13.90;70.90;;;;;;2082641;28;20029;-90
2022/06/04 02:37:50;;;;;;;3.15;1.17;;;13.90;70.90;;;;;;2087125;28;20111;-91
2022/06/04 02:39:32;;;;;;;2.85;1.33;;;13.90;70.90;;;;;;2089905;28;20384;-92
2022/06/04 02:41:13;;;;;;;2.95;1.35;;;13.90;71.00;;;;;;2099123;28;20036;-88
2022/06/04 02:43:02;;;;;;;2.58;1.35;;;13.80;71.80;;;;;;2090407;28;20029;-86
2022/06/04 02:44:28;;;;;;;3.58;1.42;;;13.80;71.60;;;;;;2095830;28;20399;-88
2022/06/04 02:45:57;;;;;;;3.00;1.20;;;13.80;71.20;;;;;;2082047;28;20037;-88
2022/06/04 02:47:22;;;;;;;2.80;1.20;;;13.80;71.30;;;;;;2082042;28;20033;-89
2022/06/04 02:48:47;;;;;;;2.83;1.17;;;13.80;71.30;;;;;;2079847;28;20017;-90
2022/06/04 02:50:30;;;;;;;3.08;1.45;;;13.80;71.50;;;;;;2090020;28;20025;-90
2022/06/04 02:51:52;;;;;;;3.13;1.30;;;13.80;71.50;;;;;;2099586;28;20041;-88
2022/06/04 02:53:15;;;;;;;1.95;1.23;;;13.80;71.50;;;;;;2099175;28;20056;-88
2022/06/04 02:54:39;;;;;;;4.15;1.65;;;13.80;71.60;;;;;;2081856;28;20041;-89
2022/06/04 02:56:04;;;;;;;4.03;1.60;;;13.70;71.80;;;;;;2088102;28;20108;-90
2022/06/04 02:57:25;;;;;;;4.57;1.67;;;13.70;71.80;;;;;;2082109;28;20066;-88
2022/06/04 02:58:49;;;;;;;3.15;1.50;;;13.70;72.00;;;;;;2079063;28;20025;-89
2022/06/04 03:00:12;;;;;;;5.90;1.75;;;13.70;72.00;;;;;;2079303;28;20100;-88
2022/06/04 03:01:37;;;;;;;4.03;1.40;;;13.70;72.00;;;;;;2079245;28;20505;-89
2022/06/04 03:02:56;;;;;;;4.82;1.52;;;13.70;72.20;;;;;;2082061;28;20112;-88
2022/06/04 03:04:15;;;;;;;4.20;1.73;;;13.70;72.30;;;;;;2087283;28;20025;-86
2022/06/04 03:05:34;;;;;;;4.20;1.52;;;13.70;72.50;;;;;;2081893;28;20030;-89
2022/06/04 03:07:03;;;;;;;2.28;1.30;;;13.60;72.60;;;;;;2087020;28;20025;-89
2022/06/04 03:08:26;;;;;;;3.22;1.70;;;13.60;72.60;;;;;;2082407;28;20120;-89
2022/06/04 03:09:46;;;;;;;2.25;1.35;;;13.60;72.70;;;;;;2087672;28;20467;-89
2022/06/04 03:11:05;;;;;;;3.55;1.60;;;13.60;72.80;;;;;;2073712;28;20026;-87
2022/06/04 03:12:24;;;;;;;3.95;1.60;;;13.60;72.90;;;;;;2084135;28;20036;-90
2022/06/04 03:13:45;;;;;;;4.38;1.77;;;13.60;73.00;;;;;;2081984;28;20033;-87
2022/06/04 03:15:06;;;;;;;4.63;1.90;;;13.60;73.10;;;;;;2070549;28;20030;-89
2022/06/04 03:16:35;;;;;;;3.50;1.50;;;13.50;73.40;;;;;;2084897;28;20068;-88
2022/06/04 03:17:54;;;;;;;4.15;1.58;;;13.50;73.50;;;;;;2082042;28;20033;-88
2022/06/04 03:19:14;;;;;;;2.35;1.48;;;13.50;73.50;;;;;;2073488;28;20026;-87
2022/06/04 03:20:33;;;;;;;2.67;1.60;;;13.50;73.60;;;;;;2070605;28;20506;-89
2022/06/04 03:21:52;;;;;;;4.20;1.65;;;13.50;73.80;;;;;;2078759;28;20026;-90
2022/06/04 03:23:12;;;;;;;3.50;1.67;;;13.50;73.80;;;;;;2073423;28;20551;-89
2022/06/04 03:24:31;;;;;;;4.55;1.90;;;13.50;74.00;;;;;;2073505;28;20034;-89
2022/06/04 03:25:50;;;;;;;3.67;1.70;;;13.50;74.80;;;;;;2062930;28;20042;-90
2022/06/04 03:27:10;;;;;;;4.15;1.60;;;13.40;74.20;;;;;;2075636;28;20029;-90
2022/06/04 03:28:29;;;;;;;2.75;1.50;;;13.40;74.20;;;;;;2073584;28;20026;-89
2022/06/04 03:29:48;;;;;;;3.20;1.50;;;13.40;74.30;;;;;;2078678;28;20147;-90
2022/06/04 03:31:07;;;;;;;2.83;1.50;;;13.40;74.40;;;;;;2057555;28;20038;-88
2022/06/04 03:32:27;;;;;;;3.85;1.70;;;13.40;74.50;;;;;;2056054;28;20050;-89
2022/06/04 03:33:46;;;;;;;3.28;1.55;;;13.40;74.50;;;;;;2067390;28;20029;-89
2022/06/04 03:35:06;;;;;;;4.43;1.95;;;13.40;74.50;;;;;;2070646;28;20057;-88
2022/06/04 03:36:26;;;;;;;3.17;1.40;;;13.40;74.60;;;;;;2082307;28;20026;-90
2022/06/04 03:37:45;;;;;;;5.45;2.00;;;13.40;74.70;;;;;;2082859;28;20033;-89
2022/06/04 03:39:06;;;;;;;3.42;1.75;;;13.30;74.80;;;;;;2066838;28;20532;-89
2022/06/04 03:40:26;;;;;;;2.22;1.45;;;13.30;74.90;;;;;;2075849;28;20041;-89
2022/06/04 03:41:45;;;;;;;4.18;2.05;;;13.30;75.00;;;;;;2081705;28;20029;-86
2022/06/04 03:43:04;;;;;;;4.38;2.00;;;13.30;75.20;;;;;;2073883;28;20037;-89
2022/06/04 03:44:23;;;;;;;5.07;1.95;;;13.30;75.50;;;;;;2081452;28;20026;-89
2022/06/04 03:45:42;;;;;;;4.97;2.00;;;13.30;75.40;;;;;;2081232;28;20049;-88
2022/06/04 03:47:02;;;;;;;5.15;2.20;;;13.30;75.60;;;;;;2073471;28;20026;-89
2022/06/04 03:48:22;;;;;;;2.78;1.60;;;13.30;75.70;;;;;;2073542;28;20073;-89
2022/06/04 03:49:43;;;;;;;3.92;2.22;;;13.30;76.40;;;;;;2065161;28;20038;-89
2022/06/04 03:51:03;;;;;;;6.68;2.20;;;13.30;75.80;;;;;;2069286;28;20586;-89
2022/06/04 03:52:22;;;;;;;4.00;1.70;;;13.20;75.80;;;;;;2062290;28;20035;-87
2022/06/04 03:53:41;;;;;;;3.55;1.80;;;13.30;75.90;;;;;;2067679;28;20093;-88
2022/06/04 03:55:01;;;;;;;2.03;1.50;;;13.20;75.90;;;;;;2081899;28;20057;-87
2022/06/04 03:56:20;;;;;;;4.15;1.88;;;13.30;75.90;;;;;;2081552;28;20517;-89
2022/06/04 03:57:50;;;;;;;3.00;1.75;;;13.30;75.90;;;;;;2081255;28;20440;-89
2022/06/04 03:59:09;;;;;;;4.68;2.20;;;13.30;75.90;;;;;;2085420;28;20396;-88
2022/06/04 04:00:32;;;;;;;4.90;1.80;;;13.30;76.00;;;;;;2090279;28;20041;-88
2022/06/04 04:01:53;;;;;;;5.40;1.75;;;13.30;76.10;;;;;;2090331;28;20490;-88
2022/06/04 04:03:16;;;;;;;5.68;2.05;;;13.30;76.10;;;;;;2089781;28;20029;-89
2022/06/04 04:04:35;;;;;;;5.35;2.00;;;13.30;76.20;;;;;;2081568;28;20108;-89
2022/06/04 04:05:55;;;;;;;3.38;1.55;;;13.30;76.20;;;;;;2070266;28;20500;-89
2022/06/04 04:07:14;;;;;;;3.70;2.03;;;13.30;76.10;;;;;;2075882;28;20511;-87
2022/06/04 04:08:34;;;;;;;5.35;1.95;;;13.40;76.30;;;;;;2086587;28;20041;-89
2022/06/04 04:09:53;;;;;;;3.90;1.70;;;13.40;76.30;;;;;;2082552;28;20042;-88
2022/06/04 04:11:14;;;;;;;5.03;1.98;;;13.40;76.40;;;;;;2075813;28;20101;-89
2022/06/04 04:12:34;;;;;;;4.95;2.40;;;13.40;76.40;;;;;;2079435;28;20061;-88
2022/06/04 04:13:53;;;;;;;5.82;2.10;;;13.40;76.40;;;;;;2066076;28;20038;-89
2022/06/04 04:15:14;;;;;;;3.97;1.90;;;13.40;76.50;;;;;;2075417;28;20042;-87
2022/06/04 04:16:33;;;;;;;4.07;1.98;;;13.40;76.50;;;;;;2070878;28;20034;-89
2022/06/04 04:17:53;;;;;;;3.40;1.85;;;13.40;76.40;;;;;;2075739;28;20432;-90
2022/06/04 04:19:12;;;;;;;3.35;1.80;;;13.40;77.20;;;;;;2078285;28;20033;-86
2022/06/04 04:20:34;;;;;;;3.95;2.30;;;13.40;76.60;;;;;;2081489;28;20534;-88
2022/06/04 04:21:53;;;;;;;3.28;2.00;;;13.40;76.60;;;;;;2087171;28;20029;-88
2022/06/04 04:23:13;;;;;;;3.05;1.95;;;13.40;76.70;;;;;;2090089;28;20037;-87
2022/06/04 04:24:32;;;;;;;4.97;2.10;;;13.40;76.70;;;;;;2090127;28;20025;-88
2022/06/04 04:25:51;;;;;;;4.43;2.25;;;13.40;76.90;;;;;;2081252;28;20065;-89
2022/06/04 04:27:11;;;;;;;3.45;1.98;;;13.40;77.00;;;;;;2078167;28;20077;-87
2022/06/04 04:28:31;;;;;;;5.85;2.15;;;13.40;77.00;;;;;;2086834;28;20044;-91
2022/06/04 04:29:50;;;;;;;5.88;2.30;;;13.40;77.10;;;;;;2081375;28;20037;-89
2022/06/04 04:31:15;;;;;;;4.72;2.50;;;13.40;77.20;;;;;;2086801;28;20037;-89
2022/06/04 04:32:34;;;;;;;4.70;2.50;;;13.40;77.30;;;;;;2081266;28;20124;-89
2022/06/04 04:33:54;;;;;;;5.47;2.53;;;13.40;77.40;;;;;;2094128;28;20029;-87
2022/06/04 04:35:18;;;;;;;4.78;2.50;;;13.40;77.50;;;;;;2098153;28;20029;-89
2022/06/04 04:36:37;;;;;;;5.65;2.08;;;13.30;77.60;;;;;;2090075;28;20487;-89
2022/06/04 04:37:57;;;;;;;4.88;2.20;;;13.30;77.70;;;;;;2081133;28;20507;-88
2022/06/04 04:39:16;;;;;;;5.90;2.38;;;13.30;77.80;;;;;;2078209;28;20033;-89
2022/06/04 04:40:35;;;;;;;4.60;2.33;;;13.30;77.90;;;;;;2062145;28;20042;-89
2022/06/04 04:41:55;;;;;;;6.03;2.22;;;13.30;78.00;;;;;;2063795;28;20038;-89
2022/06/04 04:43:14;;;;;;;7.07;2.40;;;13.30;78.00;;;;;;2066462;28;20034;-89
2022/06/04 04:44:33;;;;;;;4.78;2.10;;;13.30;78.00;;;;;;2074999;28;20030;-90
2022/06/04 04:46:04;;;;;;;3.58;2.15;;;13.30;78.00;;;;;;2065049;28;20510;-89
2022/06/04 04:47:23;;;;;;;3.55;2.00;;;13.30;78.00;;;;;;2078098;28;20075;-88
2022/06/04 04:48:44;;;;;;;3.92;2.03;;;13.30;78.00;;;;;;2073205;28;20042;-88
2022/06/04 04:50:07;;;;;;;4.55;2.05;;;13.30;78.00;;;;;;2072304;28;20500;-89
2022/06/04 04:51:26;;;;;;;4.53;2.42;;;13.40;78.10;;;;;;2081681;28;20034;-88
2022/06/04 04:52:46;;;;;;;4.85;2.20;;;13.40;78.10;;;;;;2073307;28;20041;-90
2022/06/04 04:54:05;;;;;;;5.72;2.30;;;13.40;78.20;;;;;;2082427;28;20463;-88
2022/06/04 04:55:25;;;;;;;4.07;2.50;;;13.40;78.20;;;;;;2073334;28;20034;-88
2022/06/04 04:56:45;;;;;;;4.35;2.30;;;13.40;78.20;;;;;;2086594;28;20034;-88
2022/06/04 04:58:04;;;;;;;4.82;2.28;;;13.40;78.20;;;;;;2076260;28;20502;-89
2022/06/04 04:59:23;;;;;;;3.50;2.05;;;13.50;78.30;;;;;;2083611;28;20021;-89
2022/06/04 05:00:43;;;;;;;4.40;2.20;;;13.50;78.20;;;;;;2090427;28;20045;-89
2022/06/04 05:02:03;;;;;;;5.00;2.60;;;13.50;78.20;;;;;;2081717;28;20449;-89
2022/06/04 05:03:22;;;;;;;4.03;2.40;;;13.60;78.20;;;;;;2078167;28;20026;-88
2022/06/04 05:04:41;;;;;;;5.05;2.05;;;13.60;78.70;;;;;;2078389;28;20033;-89
2022/06/04 05:06:03;;;;;;;4.82;2.13;;;13.70;78.00;;;;;;2073289;28;20539;-88
2022/06/04 05:07:22;;;;;;;4.45;2.30;;;13.70;77.90;;;;;;2080740;28;20030;-89
2022/06/04 05:08:43;;;;;;;5.57;2.70;;;13.70;77.80;;;;;;2086299;28;20123;-89
2022/06/04 05:10:03;;;;;;;6.13;2.60;;;13.80;77.80;;;;;;2086654;28;20029;-89
2022/06/04 05:11:27;;;;;;;4.65;2.47;;;13.90;77.80;;;;;;2081305;28;20416;-89
2022/06/04 05:12:49;;;;;;;5.03;2.03;;;13.90;77.70;;;;;;2086711;28;20034;-87
2022/06/04 05:14:09;;;;;;;5.05;2.40;;;14.00;77.60;;;;;;2081419;28;20108;-90
2022/06/04 05:15:28;;;;;;;4.40;2.17;;;14.00;77.50;;;;;;2073296;28;20025;-89
2022/06/04 05:16:47;;;;;;;4.05;2.20;;;14.10;77.40;;;;;;2073015;28;20124;-89
2022/06/04 05:18:07;;;;;;;4.90;1.98;;;14.10;77.20;;;;;;2074882;28;20073;-89
2022/06/04 05:19:27;;;;;;;4.32;2.40;;;14.20;77.20;;;;;;2064883;28;20038;-89
2022/06/04 05:20:47;;;;;;;4.53;2.35;;;14.20;77.10;;;;;;2070246;28;20039;-89
2022/06/04 05:22:06;;;;;;;4.55;2.25;;;14.30;77.10;;;;;;2075121;28;20034;-90
2022/06/04 05:23:25;;;;;;;4.38;2.50;;;14.30;77.00;;;;;;2072869;28;20054;-89
2022/06/04 05:24:44;;;;;;;5.80;2.50;;;14.30;77.00;;;;;;2090921;28;20044;-89
2022/06/04 05:26:04;;;;;;;4.78;2.60;;;14.20;77.00;;;;;;2088969;28;20097;-89
2022/06/04 05:27:23;;;;;;;4.30;2.60;;;14.20;77.10;;;;;;2096285;28;20029;-90
2022/06/04 05:28:42;;;;;;;5.18;2.30;;;14.20;77.30;;;;;;2091106;28;20415;-90
2022/06/04 05:30:02;;;;;;;4.72;2.42;;;14.20;77.40;;;;;;2087997;28;20438;-89
2022/06/04 05:31:23;;;;;;;4.68;2.15;;;14.20;77.40;;;;;;2085070;28;20029;-90
2022/06/04 05:32:42;;;;;;;4.35;2.60;;;14.10;77.40;;;;;;2101471;28;20485;-88
2022/06/04 05:34:01;;;;;;;4.68;2.45;;;14.10;77.40;;;;;;2091324;28;20458;-88
2022/06/04 05:35:20;;;;;;;6.43;2.60;;;14.20;77.40;;;;;;2098024;28;20044;-88
2022/06/04 05:36:40;;;;;;;5.13;2.22;;;14.20;77.50;;;;;;2099354;28;20033;-90
2022/06/04 05:37:59;;;;;;;5.78;2.85;;;14.20;77.50;;;;;;2087876;28;20029;-90
2022/06/04 05:39:20;;;;;;;5.65;2.80;;;14.20;77.40;;;;;;2087487;28;20108;-89
2022/06/04 05:40:39;;;;;;;;;;;14.20;77.40;;;;;;2080263;28;20480;-90
2022/06/04 05:41:59;;;;;;;3.88;2.10;;;14.20;77.40;;;;;;2085780;28;19909;-89
2022/06/04 05:43:18;;;;;;;4.57;2.30;;;14.20;77.20;;;;;;2076643;28;20068;-89
2022/06/04 05:44:37;;;;;;;3.75;2.17;;;14.20;77.20;;;;;;2079382;28;20045;-90
2022/06/04 05:45:58;;;;;;;3.80;2.10;;;14.30;77.20;;;;;;2084398;28;20037;-88
2022/06/04 05:47:17;;;;;;;5.18;2.45;;;14.30;77.20;;;;;;2079729;28;20495;-89
2022/06/04 05:48:38;;;;;;;4.18;2.45;;;14.30;77.00;;;;;;2080157;28;20021;-89
2022/06/04 05:49:58;;;;;;;4.07;2.22;;;14.30;77.10;;;;;;2077165;28;20025;-90
2022/06/04 05:51:20;;;;;;;7.72;2.40;;;14.40;77.10;;;;;;2079797;28;20030;-89
2022/06/04 05:52:40;;;;;;;4.38;2.35;;;14.40;77.10;;;;;;2094132;28;20036;-89
2022/06/04 05:54:00;;;;;;;5.15;2.53;;;14.40;77.10;;;;;;2071188;28;20128;-89
2022/06/04 05:55:19;;;;;;;4.53;2.30;;;14.40;77.00;;;;;;2073525;28;20037;-89
2022/06/04 05:56:41;;;;;;;5.32;2.58;;;14.40;77.00;;;;;;2087875;28;20033;-87
2022/06/04 05:58:00;;;;;;;5.00;2.50;;;14.50;77.00;;;;;;2074712;28;20046;-87
2022/06/04 05:59:22;;;;;;;5.60;2.40;;;14.50;76.90;;;;;;2084263;28;20025;-89
2022/06/04 06:00:42;;;;;;;7.43;2.90;;;14.50;77.00;;;;;;2096346;28;20417;-87
2022/06/04 06:02:01;;;;;;;4.95;2.65;;;14.50;76.90;;;;;;2082726;28;20057;-90
2022/06/04 06:03:21;;;;;;;4.72;2.70;;;14.50;76.90;;;;;;2084481;28;20040;-89
2022/06/04 06:04:40;;;;;;;4.32;2.35;;;14.50;77.00;;;;;;2079123;28;20037;-90
2022/06/04 06:05:59;;;;;;;3.70;2.13;;;14.50;76.90;;;;;;2079422;28;20037;-90
2022/06/04 06:07:18;;;;;;;4.45;2.33;;;14.50;76.90;;;;;;2087565;28;20056;-90
2022/06/04 06:08:37;;;;;;;4.28;2.15;;;14.50;76.90;;;;;;2079331;28;20045;-90
2022/06/04 06:09:56;;;;;;;4.85;2.30;;;14.60;76.90;;;;;;2076115;28;20061;-88
2022/06/04 06:11:17;;;;;;;4.00;2.00;;;14.60;76.80;;;;;;2084573;28;20033;-90
2022/06/04 06:12:37;;;;;;;4.05;2.30;;;14.60;76.80;;;;;;2084991;28;20037;-89
2022/06/04 06:13:56;;;;;;;4.53;2.53;;;14.60;76.80;;;;;;2084779;28;20029;-89
2022/06/04 06:15:15;;;;;;;3.88;2.13;;;14.60;76.80;;;;;;2084104;28;20507;-89
2022/06/04 06:16:37;;;;;;;5.78;2.38;;;14.60;76.70;;;;;;2074326;28;20030;-90
2022/06/04 06:17:56;;;;;;;4.32;2.30;;;14.70;76.80;;;;;;2084881;28;20029;-90
2022/06/04 06:19:18;;;;;;;5.00;2.42;;;14.70;76.70;;;;;;2074244;28;20041;-89
2022/06/04 06:20:43;;;;;;;3.80;2.30;;;14.70;76.60;;;;;;2079724;28;20089;-90
2022/06/04 06:22:04;;;;;;;3.92;2.13;;;14.70;76.60;;;;;;2079899;28;20025;-89
2022/06/04 06:23:23;;;;;;;5.20;2.25;;;14.70;76.50;;;;;;2074437;28;20120;-89
2022/06/04 06:24:43;;;;;;;4.28;2.15;;;14.80;76.50;;;;;;2076047;28;20042;-90
2022/06/04 06:26:08;;;;;;;5.07;2.58;;;14.80;76.50;;;;;;2078957;28;20053;-89
2022/06/04 06:27:27;;;;;;;7.07;2.80;;;14.80;76.40;;;;;;2088888;28;20029;-90
2022/06/04 06:28:46;;;;;;;3.20;2.05;;;14.80;76.40;;;;;;2091262;28;20033;-89
2022/06/04 06:30:06;;;;;;;5.65;2.60;;;14.80;76.40;;;;;;2091131;28;20112;-90
2022/06/04 06:31:26;;;;;;;3.35;2.05;;;14.80;76.40;;;;;;2082418;28;20484;-90
2022/06/04 06:32:46;;;;;;;4.80;2.40;;;14.80;76.30;;;;;;2088420;28;20029;-89
2022/06/04 06:34:05;;;;;;;6.07;2.97;;;14.90;76.30;;;;;;2089889;28;20037;-89
2022/06/04 06:35:24;;;;;;;3.92;2.20;;;14.90;76.30;;;;;;2090479;28;20037;-90
2022/06/04 06:36:43;;;;;;;4.70;2.25;;;14.90;76.20;;;;;;2082291;28;20046;-90
2022/06/04 06:38:03;;;;;;;4.93;2.25;;;14.90;76.20;;;;;;2087374;28;20033;-89
2022/06/04 06:39:22;;;;;;;3.58;2.08;;;15.00;76.20;;;;;;2090730;28;20025;-89
2022/06/04 06:40:41;;;;;;;5.97;2.67;;;15.00;76.10;;;;;;2081773;28;20037;-89
2022/06/04 06:42:01;;;;;;;3.55;2.00;;;15.00;76.10;;;;;;2073908;28;20038;-89
2022/06/04 06:43:21;;;;;;;5.95;2.60;;;15.00;76.10;;;;;;2062572;28;20043;-88
2022/06/04 06:44:40;;;;;;;4.82;2.50;;;15.00;76.10;;;;;;2075884;28;20041;-89
2022/06/04 06:46:12;;;;;;;3.83;2.28;;;15.00;76.20;;;;;;2073709;28;20034;-89
2022/06/04 06:47:33;;;;;;;4.88;2.42;;;15.00;76.10;;;;;;2081048;28;20037;-90
2022/06/04 06:48:56;;;;;;;3.47;2.22;;;15.00;76.10;;;;;;2074279;28;20101;-90
2022/06/04 06:50:16;;;;;;;4.68;2.22;;;15.00;76.20;;;;;;2071093;28;20037;-89
2022/06/04 06:51:57;;;;;;;4.35;2.53;;;15.00;76.20;;;;;;2062560;28;20057;-89
2022/06/04 06:53:17;;;;;;;4.70;2.30;;;15.00;76.20;;;;;;2073623;28;20030;-89
2022/06/04 06:54:37;;;;;;;4.07;2.38;;;15.00;76.30;;;;;;2078466;28;20128;-89
2022/06/04 06:55:56;;;;;;;4.32;2.03;;;15.00;76.30;;;;;;2065908;28;20034;-90
2022/06/04 06:57:18;;;;;;;4.78;2.03;;;15.00;76.40;;;;;;2067649;28;20034;-89
2022/06/04 06:58:37;;;;;;;4.75;2.25;;;15.00;76.40;;;;;;2070948;28;20026;-89
2022/06/04 06:59:56;;;;;;;4.80;2.17;;;15.00;76.40;;;;;;2070783;28;20030;-88
2022/06/04 07:01:16;;;;;;;5.40;2.60;;;15.00;76.30;;;;;;2055516;28;20051;-88
2022/06/04 07:02:36;;;;;;;3.85;2.30;;;15.00;76.30;;;;;;2072991;28;20037;-89
2022/06/04 07:03:56;;;;;;;4.43;2.23;;;15.00;76.40;;;;;;2074004;28;20034;-89
2022/06/04 07:05:15;;;;;;;5.25;2.05;;;15.00;76.40;;;;;;2070884;28;20272;-89
2022/06/04 07:06:40;;;;;;;4.32;2.35;;;15.00;76.50;;;;;;2063372;28;20039;-88
2022/06/04 07:07:59;;;;;;;5.97;2.60;;;15.00;76.60;;;;;;2074770;28;20077;-90
2022/06/04 07:09:30;;;;;;;4.95;2.38;;;15.00;76.60;;;;;;2062540;28;20030;-88
2022/06/04 07:10:50;;;;;;;4.60;2.15;;;15.00;76.60;;;;;;2079771;28;20519;-89
2022/06/04 07:12:11;;;;;;;4.20;2.33;;;15.00;76.60;;;;;;2071515;28;20053;-89
2022/06/04 07:13:30;;;;;;;4.53;2.60;;;15.00;76.60;;;;;;2080451;28;20033;-87
2022/06/04 07:14:50;;;;;;;5.03;2.50;;;15.10;76.60;;;;;;2082682;28;20030;-90
2022/06/04 07:16:09;;;;;;;4.55;2.40;;;15.00;76.60;;;;;;2090361;28;20036;-89
2022/06/04 07:17:28;;;;;;;5.75;2.80;;;15.00;76.70;;;;;;2082009;28;20480;-90
2022/06/04 07:18:48;;;;;;;3.95;2.42;;;15.00;76.70;;;;;;2062377;28;20042;-89
2022/06/04 07:20:08;;;;;;;4.70;2.90;;;15.10;76.80;;;;;;2072368;28;20025;-89
2022/06/04 07:21:27;;;;;;;5.80;2.90;;;15.10;76.80;;;;;;2070471;28;20041;-90